Time;durP1;ratioP1;P1;durP2;ratioP2;P2;SDS_P1;SDS_P2;PMS_P1;PMS_P2;Temp;Humidity;BMP_temperature;BMP_pressure;BME280_temperature;BME280_humidity;BME280_pressure;Samples;Min_cycle;Max_cycle;Signal;HPM_P1;HPM_P2
2023/04/15 00:00:20;;;;;;;14.50;8.63;;;;;;;;;;5075223;28;20464;-70
2023/04/15 00:02:48;;;;;;;12.27;8.37;;;;;;;;;;5074829;28;20445;-70
2023/04/15 00:05:18;;;;;;;11.80;8.03;;;;;;;;;;5079512;28;20515;-70
2023/04/15 00:07:46;;;;;;;11.83;8.77;;;;;;;;;;5078629;28;20866;-70
2023/04/15 00:10:23;;;;;;;10.70;8.03;;;;;;;;;;5074910;28;20575;-69
2023/04/15 00:12:51;;;;;;;11.33;7.30;;;;;;;;;;5082536;28;20481;-68
2023/04/15 00:15:18;;;;;;;10.50;6.33;;;;;;;;;;5082745;28;20481;-69
2023/04/15 00:17:48;;;;;;;9.43;6.53;;;;;;;;;;5078107;28;20442;-69
2023/04/15 00:20:25;;;;;;;9.43;6.60;;;;;;;;;;5074753;28;20453;-69
2023/04/15 00:25:34;;;;;;;7.70;5.70;;;;;;;;;;5077602;28;20716;-69
2023/04/15 00:28:01;;;;;;;6.50;4.50;;;;;;;;;;5076023;28;20437;-69
2023/04/15 00:30:30;;;;;;;7.40;5.37;;;;;;;;;;5085462;28;20456;-70
2023/04/15 00:32:58;;;;;;;7.23;5.00;;;;;;;;;;5075487;28;20972;-69
2023/04/15 00:35:32;;;;;;;6.00;4.70;;;;;;;;;;5092296;28;20444;-69
2023/04/15 00:38:00;;;;;;;6.97;5.20;;;;;;;;;;5094165;28;20479;-70
2023/04/15 00:40:27;;;;;;;7.23;4.60;;;;;;;;;;5095779;28;20456;-69
2023/04/15 00:42:56;;;;;;;6.30;4.93;;;;;;;;;;5094799;28;20517;-70
2023/04/15 00:45:24;;;;;;;6.90;4.77;;;;;;;;;;5095037;28;20517;-70
2023/04/15 00:47:52;;;;;;;5.70;4.23;;;;;;;;;;5093955;28;20452;-70
2023/04/15 00:50:30;;;;;;;6.90;4.30;;;;;;;;;;5083002;28;20457;-70
2023/04/15 00:53:00;;;;;;;9.10;5.53;;;;;;;;;;5082538;28;20494;-70
2023/04/15 00:55:27;;;;;;;6.90;4.60;;;;;;;;;;5082203;28;20461;-70
2023/04/15 00:57:55;;;;;;;9.43;5.10;;;;;;;;;;5076749;28;20543;-70
2023/04/15 01:00:22;;;;;;;7.43;4.37;;;;;;;;;;5076430;28;20484;-70
2023/04/15 01:02:51;;;;;;;7.83;5.50;;;;;;;;;;5076866;28;20456;-71
2023/04/15 01:05:18;;;;;;;5.90;4.40;;;;;;;;;;5077333;28;20547;-70
2023/04/15 01:07:46;;;;;;;6.80;5.40;;;;;;;;;;5076563;28;20457;-70
2023/04/15 01:10:22;;;;;;;7.23;4.70;;;;;;;;;;5078279;28;20567;-70
2023/04/15 01:12:51;;;;;;;8.10;5.50;;;;;;;;;;5088684;28;20473;-70
2023/04/15 01:15:23;;;;;;;7.60;5.33;;;;;;;;;;5089872;28;20448;-71
2023/04/15 01:17:54;;;;;;;7.73;5.60;;;;;;;;;;5082540;28;20440;-70
2023/04/15 01:20:22;;;;;;;7.43;5.20;;;;;;;;;;5080246;28;20448;-70
2023/04/15 01:22:50;;;;;;;8.83;5.10;;;;;;;;;;5080527;28;20453;-70
2023/04/15 01:25:20;;;;;;;6.63;4.50;;;;;;;;;;5079633;28;20518;-70
2023/04/15 01:27:49;;;;;;;7.10;5.17;;;;;;;;;;5079278;28;20457;-70
2023/04/15 01:30:21;;;;;;;6.97;4.87;;;;;;;;;;5089047;28;20451;-70
2023/04/15 01:32:52;;;;;;;7.53;4.97;;;;;;;;;;5086317;28;20468;-70
2023/04/15 01:35:20;;;;;;;7.93;5.07;;;;;;;;;;5093884;28;20543;-69
2023/04/15 01:37:48;;;;;;;8.40;5.77;;;;;;;;;;5099129;28;20480;-69
2023/04/15 01:40:20;;;;;;;7.97;5.27;;;;;;;;;;5099757;28;20808;-69
2023/04/15 01:42:49;;;;;;;6.67;5.10;;;;;;;;;;5099552;28;20458;-70
2023/04/15 01:45:17;;;;;;;6.37;4.70;;;;;;;;;;5098953;28;20468;-70
2023/04/15 01:47:44;;;;;;;7.70;5.40;;;;;;;;;;5098779;28;20734;-70
2023/04/15 01:50:13;;;;;;;6.67;5.33;;;;;;;;;;5098933;28;20818;-70
2023/04/15 01:52:40;;;;;;;6.90;4.70;;;;;;;;;;5098631;28;20507;-69
2023/04/15 01:55:08;;;;;;;6.60;5.00;;;;;;;;;;5097333;28;20550;-70
2023/04/15 01:57:36;;;;;;;8.43;5.63;;;;;;;;;;5097560;28;20456;-69
2023/04/15 02:00:07;;;;;;;6.77;5.00;;;;;;;;;;5096978;28;20448;-69
2023/04/15 02:02:35;;;;;;;7.40;5.73;;;;;;;;;;5098436;28;20448;-69
2023/04/15 02:05:03;;;;;;;7.10;4.80;;;;;;;;;;5097557;28;20547;-70
2023/04/15 02:07:31;;;;;;;6.43;4.40;;;;;;;;;;5097957;28;20456;-70
2023/04/15 02:10:07;;;;;;;7.77;5.53;;;;;;;;;;5098746;28;20467;-70
2023/04/15 02:12:35;;;;;;;6.53;4.73;;;;;;;;;;5099324;28;20487;-70
2023/04/15 02:15:03;;;;;;;7.43;6.33;;;;;;;;;;5099100;28;20518;-70
2023/04/15 02:17:35;;;;;;;7.77;5.30;;;;;;;;;;5098926;28;20935;-70
2023/04/15 02:20:06;;;;;;;10.03;5.77;;;;;;;;;;5098725;28;20571;-70
2023/04/15 02:22:33;;;;;;;8.10;5.77;;;;;;;;;;5098996;28;20856;-70
2023/04/15 02:25:00;;;;;;;9.93;6.37;;;;;;;;;;5097883;28;20730;-70
2023/04/15 02:27:29;;;;;;;7.37;5.47;;;;;;;;;;5098585;28;20495;-70
2023/04/15 02:29:57;;;;;;;9.70;6.27;;;;;;;;;;5090742;28;20543;-72
2023/04/15 02:32:24;;;;;;;8.17;5.37;;;;;;;;;;5077754;28;20950;-70
2023/04/15 02:34:53;;;;;;;7.90;4.97;;;;;;;;;;5075072;28;20938;-70
2023/04/15 02:37:26;;;;;;;8.53;5.87;;;;;;;;;;5074513;28;20531;-71
2023/04/15 02:39:53;;;;;;;8.50;6.07;;;;;;;;;;5074939;28;20546;-70
2023/04/15 02:42:21;;;;;;;8.87;5.70;;;;;;;;;;5076041;28;20489;-71
2023/04/15 02:44:48;;;;;;;9.97;6.50;;;;;;;;;;5076824;28;20484;-70
2023/04/15 02:47:16;;;;;;;10.13;6.57;;;;;;;;;;5076507;28;20512;-70
2023/04/15 02:49:43;;;;;;;10.10;6.17;;;;;;;;;;5077507;28;20488;-71
2023/04/15 02:52:13;;;;;;;11.43;6.20;;;;;;;;;;5078055;28;20769;-71
2023/04/15 02:54:40;;;;;;;8.27;5.17;;;;;;;;;;5077443;28;20480;-71
2023/04/15 02:57:09;;;;;;;9.10;5.83;;;;;;;;;;5077203;28;20536;-70
2023/04/15 02:59:38;;;;;;;10.80;6.57;;;;;;;;;;5076489;28;20460;-71
2023/04/15 03:02:06;;;;;;;12.27;7.43;;;;;;;;;;5077762;28;20453;-71
2023/04/15 03:04:33;;;;;;;9.00;6.80;;;;;;;;;;5079053;28;20492;-71
2023/04/15 03:07:02;;;;;;;10.20;6.50;;;;;;;;;;5079056;28;20539;-71
2023/04/15 03:09:32;;;;;;;9.00;6.10;;;;;;;;;;5078665;28;20461;-72
2023/04/15 03:12:00;;;;;;;10.70;6.57;;;;;;;;;;5077652;28;20506;-71
2023/04/15 03:14:29;;;;;;;8.23;6.33;;;;;;;;;;5078247;28;20453;-71
2023/04/15 03:16:58;;;;;;;10.43;7.23;;;;;;;;;;5078501;28;20471;-71
2023/04/15 03:19:31;;;;;;;9.97;7.23;;;;;;;;;;5077242;28;20731;-72
2023/04/15 03:22:00;;;;;;;9.90;7.00;;;;;;;;;;5078565;28;20460;-71
2023/04/15 03:24:30;;;;;;;13.00;7.80;;;;;;;;;;5080136;28;20464;-70
2023/04/15 03:27:05;;;;;;;12.50;7.07;;;;;;;;;;5079419;28;20484;-71
2023/04/15 03:29:32;;;;;;;11.17;7.03;;;;;;;;;;5080413;28;20476;-70
2023/04/15 03:32:00;;;;;;;13.40;9.13;;;;;;;;;;5077475;28;20520;-71
2023/04/15 03:34:28;;;;;;;12.93;8.00;;;;;;;;;;5077817;28;20461;-70
2023/04/15 03:36:57;;;;;;;12.33;8.53;;;;;;;;;;5078316;28;20790;-70
2023/04/15 03:39:24;;;;;;;15.00;9.83;;;;;;;;;;5079230;28;20883;-70
2023/04/15 03:41:52;;;;;;;13.23;9.67;;;;;;;;;;5079560;28;20479;-70
2023/04/15 03:44:21;;;;;;;14.90;9.67;;;;;;;;;;5079117;28;20457;-71
2023/04/15 03:46:49;;;;;;;15.57;10.27;;;;;;;;;;5078197;28;20737;-70
2023/04/15 03:49:18;;;;;;;19.03;9.70;;;;;;;;;;5078848;28;20485;-69
2023/04/15 03:51:46;;;;;;;15.90;10.80;;;;;;;;;;5077940;28;20572;-71
2023/04/15 03:54:14;;;;;;;15.93;9.80;;;;;;;;;;5077056;28;20456;-70
2023/04/15 03:56:41;;;;;;;20.20;10.17;;;;;;;;;;5077670;28;20467;-69
2023/04/15 03:59:10;;;;;;;21.13;14.03;;;;;;;;;;5077551;28;20496;-71
2023/04/15 04:01:39;;;;;;;21.47;11.13;;;;;;;;;;5059106;28;20496;-71
2023/04/15 04:04:11;;;;;;;17.87;11.30;;;;;;;;;;5056112;28;20461;-71
2023/04/15 04:06:40;;;;;;;16.47;10.13;;;;;;;;;;5057943;28;20891;-70
2023/04/15 04:09:08;;;;;;;17.17;11.33;;;;;;;;;;5077437;28;20536;-70
2023/04/15 04:11:36;;;;;;;19.03;12.00;;;;;;;;;;5078068;28;20449;-69
2023/04/15 04:14:18;;;;;;;18.73;11.90;;;;;;;;;;5078479;28;20468;-71
2023/04/15 04:16:48;;;;;;;16.20;11.00;;;;;;;;;;5060487;28;20495;-71
2023/04/15 04:19:18;;;;;;;19.07;10.70;;;;;;;;;;5078161;28;20451;-71
2023/04/15 04:21:46;;;;;;;21.40;12.43;;;;;;;;;;5077313;28;20522;-72
2023/04/15 04:24:13;;;;;;;21.30;11.50;;;;;;;;;;5077146;28;20540;-71
2023/04/15 04:26:41;;;;;;;19.00;10.50;;;;;;;;;;5076212;28;20467;-72
2023/04/15 04:29:08;;;;;;;19.77;11.90;;;;;;;;;;5076806;28;20449;-70
2023/04/15 04:31:39;;;;;;;18.63;10.30;;;;;;;;;;5077981;28;20505;-71
2023/04/15 04:34:08;;;;;;;19.00;11.30;;;;;;;;;;5078241;28;20461;-72
2023/04/15 04:36:36;;;;;;;21.27;10.80;;;;;;;;;;5078196;28;20501;-71
2023/04/15 04:39:03;;;;;;;18.10;11.67;;;;;;;;;;5076636;28;20556;-72
2023/04/15 04:41:31;;;;;;;19.53;12.10;;;;;;;;;;5078052;28;20464;-71
2023/04/15 04:43:58;;;;;;;19.87;10.80;;;;;;;;;;5077250;28;20449;-72
2023/04/15 04:46:26;;;;;;;18.63;11.93;;;;;;;;;;5076381;28;20485;-71
2023/04/15 04:48:58;;;;;;;21.60;11.43;;;;;;;;;;5082189;28;20456;-72
2023/04/15 04:51:28;;;;;;;22.83;11.70;;;;;;;;;;5081496;28;20509;-71
2023/04/15 04:53:58;;;;;;;20.47;10.63;;;;;;;;;;5079464;28;20473;-71
2023/04/15 04:56:26;;;;;;;17.43;11.77;;;;;;;;;;5062252;28;20519;-71
2023/04/15 04:58:53;;;;;;;19.37;10.90;;;;;;;;;;5059206;28;20449;-71
2023/04/15 05:01:21;;;;;;;20.33;10.50;;;;;;;;;;5062772;28;20473;-70
2023/04/15 05:03:49;;;;;;;17.27;11.47;;;;;;;;;;5061785;28;20484;-70
2023/04/15 05:06:17;;;;;;;20.73;11.60;;;;;;;;;;5060749;28;20465;-70
2023/04/15 05:08:48;;;;;;;23.37;13.73;;;;;;;;;;5080388;28;20457;-70
2023/04/15 05:11:17;;;;;;;26.80;12.90;;;;;;;;;;5082282;28;20464;-70
2023/04/15 05:13:45;;;;;;;20.93;11.57;;;;;;;;;;5081552;28;20775;-71
2023/04/15 05:16:29;;;;;;;23.37;12.03;;;;;;;;;;5081371;28;20518;-70
2023/04/15 05:18:59;;;;;;;22.60;13.00;;;;;;;;;;5078861;28;20456;-72
2023/04/15 05:21:30;;;;;;;21.90;12.20;;;;;;;;;;5079942;28;20569;-70
2023/04/15 05:23:59;;;;;;;24.03;12.43;;;;;;;;;;5081158;28;20453;-70
2023/04/15 05:26:27;;;;;;;25.23;13.10;;;;;;;;;;5081105;28;20468;-72
2023/04/15 05:29:01;;;;;;;20.63;12.20;;;;;;;;;;5080778;28;20465;-70
2023/04/15 05:31:39;;;;;;;19.80;11.20;;;;;;;;;;5080034;28;20576;-71
2023/04/15 05:34:11;;;;;;;20.90;13.00;;;;;;;;;;5081416;28;20557;-72
2023/04/15 05:36:45;;;;;;;24.40;12.07;;;;;;;;;;5079450;28;20515;-72
2023/04/15 05:39:18;;;;;;;23.90;12.37;;;;;;;;;;5089994;28;20858;-70
2023/04/15 05:41:51;;;;;;;22.87;11.60;;;;;;;;;;5100843;28;20519;-71
2023/04/15 05:44:22;;;;;;;25.47;13.03;;;;;;;;;;5099574;28;20514;-70
2023/04/15 05:46:51;;;;;;;29.50;13.53;;;;;;;;;;5098551;28;21117;-71
2023/04/15 05:49:26;;;;;;;23.37;13.27;;;;;;;;;;5096752;28;20561;-71
2023/04/15 05:51:56;;;;;;;27.53;12.90;;;;;;;;;;5099738;28;20522;-70
2023/04/15 05:54:26;;;;;;;28.30;14.00;;;;;;;;;;5097108;28;20827;-70
2023/04/15 05:56:57;;;;;;;26.17;14.60;;;;;;;;;;5097736;28;20537;-70
2023/04/15 05:59:29;;;;;;;25.33;13.57;;;;;;;;;;5095105;28;20939;-71
2023/04/15 06:01:58;;;;;;;26.23;14.33;;;;;;;;;;5084800;28;20522;-70
2023/04/15 06:04:29;;;;;;;30.60;15.97;;;;;;;;;;5093960;28;20448;-70
2023/04/15 06:06:58;;;;;;;28.03;13.87;;;;;;;;;;5094833;28;20451;-70
2023/04/15 06:09:41;;;;;;;25.90;13.43;;;;;;;;;;5096891;28;20456;-71
2023/04/15 06:12:12;;;;;;;32.10;15.67;;;;;;;;;;5095090;28;20465;-71
2023/04/15 06:14:42;;;;;;;33.60;15.53;;;;;;;;;;5097397;28;20452;-70
2023/04/15 06:17:21;;;;;;;33.70;15.70;;;;;;;;;;5097110;28;20440;-71
2023/04/15 06:20:10;;;;;;;31.17;15.33;;;;;;;;;;5096958;28;21112;-72
2023/04/15 06:22:44;;;;;;;34.40;16.60;;;;;;;;;;5097088;28;20467;-71
2023/04/15 06:25:17;;;;;;;34.50;18.73;;;;;;;;;;5099068;28;20543;-71
2023/04/15 06:27:45;;;;;;;37.50;18.80;;;;;;;;;;5100539;28;20895;-70
2023/04/15 06:30:24;;;;;;;33.20;18.00;;;;;;;;;;5097241;28;20480;-71
2023/04/15 06:32:54;;;;;;;26.07;16.93;;;;;;;;;;5097775;28;20476;-71
2023/04/15 06:35:26;;;;;;;32.77;18.67;;;;;;;;;;5094387;28;20491;-70
2023/04/15 06:37:58;;;;;;;36.90;20.07;;;;;;;;;;5093999;28;20459;-69
2023/04/15 06:40:33;;;;;;;36.07;19.03;;;;;;;;;;5075859;28;20477;-70
2023/04/15 06:43:09;;;;;;;37.27;20.17;;;;;;;;;;5073784;28;20452;-73
2023/04/15 06:45:40;;;;;;;42.20;20.67;;;;;;;;;;5075036;28;20452;-69
2023/04/15 06:48:08;;;;;;;36.93;21.47;;;;;;;;;;5074443;28;20513;-70
2023/04/15 06:50:36;;;;;;;35.90;20.67;;;;;;;;;;5062491;28;20507;-71
2023/04/15 06:53:05;;;;;;;38.87;21.50;;;;;;;;;;5068397;28;20489;-70
2023/04/15 06:55:40;;;;;;;34.43;20.40;;;;;;;;;;5073658;28;20460;-70
2023/04/15 06:58:15;;;;;;;37.67;23.53;;;;;;;;;;5072512;28;20870;-70
2023/04/15 07:00:53;;;;;;;37.20;23.57;;;;;;;;;;5074692;28;20448;-71
2023/04/15 07:03:21;;;;;;;34.87;21.43;;;;;;;;;;5073893;28;20498;-70
2023/04/15 07:05:49;;;;;;;38.07;22.80;;;;;;;;;;5073805;28;20526;-71
2023/04/15 07:08:31;;;;;;;43.50;24.10;;;;;;;;;;5076370;28;20463;-70
2023/04/15 07:11:13;;;;;;;40.67;23.30;;;;;;;;;;5057997;28;21079;-71
2023/04/15 07:13:44;;;;;;;45.80;25.10;;;;;;;;;;5068243;28;20503;-72
2023/04/15 07:16:13;;;;;;;39.50;22.70;;;;;;;;;;5062202;28;20512;-70
2023/04/15 07:18:44;;;;;;;46.23;23.00;;;;;;;;;;5076856;28;20888;-71
2023/04/15 07:21:13;;;;;;;40.40;23.73;;;;;;;;;;5073845;28;20457;-71
2023/04/15 07:23:41;;;;;;;42.80;24.37;;;;;;;;;;5075311;28;20801;-72
2023/04/15 07:26:11;;;;;;;42.93;24.10;;;;;;;;;;5073993;28;21063;-71
2023/04/15 07:28:39;;;;;;;37.90;21.67;;;;;;;;;;5073046;28;20464;-71
2023/04/15 07:31:07;;;;;;;46.27;22.60;;;;;;;;;;5073207;28;20835;-71
2023/04/15 07:33:37;;;;;;;41.30;23.93;;;;;;;;;;5075082;28;20477;-70
2023/04/15 07:36:11;;;;;;;44.97;22.13;;;;;;;;;;5074583;28;20453;-71
2023/04/15 07:38:46;;;;;;;42.17;23.80;;;;;;;;;;5077904;28;20842;-70
2023/04/15 07:41:21;;;;;;;44.00;21.57;;;;;;;;;;5088249;28;20449;-70
2023/04/15 07:43:52;;;;;;;46.60;25.80;;;;;;;;;;5095097;28;20459;-71
2023/04/15 07:46:23;;;;;;;47.93;26.03;;;;;;;;;;5094966;28;20463;-70
2023/04/15 07:48:52;;;;;;;45.13;26.00;;;;;;;;;;5096624;28;20443;-70
2023/04/15 07:51:31;;;;;;;45.63;24.80;;;;;;;;;;5088964;28;20858;-70
2023/04/15 07:54:04;;;;;;;44.70;24.73;;;;;;;;;;5086452;28;20488;-74
2023/04/15 07:56:33;;;;;;;46.87;25.80;;;;;;;;;;5072839;28;20467;-70
2023/04/15 07:59:03;;;;;;;42.57;23.67;;;;;;;;;;5073122;28;21037;-69
2023/04/15 08:01:34;;;;;;;46.10;25.17;;;;;;;;;;5079915;28;20472;-72
2023/04/15 08:04:13;;;;;;;41.67;23.37;;;;;;;;;;5092631;28;20520;-70
2023/04/15 08:06:49;;;;;;;41.33;25.07;;;;;;;;;;5093344;28;20462;-72
2023/04/15 08:09:19;;;;;;;44.10;26.00;;;;;;;;;;5095908;28;20525;-71
2023/04/15 08:11:49;;;;;;;45.70;26.77;;;;;;;;;;5093729;28;20521;-69
2023/04/15 08:14:17;;;;;;;49.53;25.60;;;;;;;;;;5093205;28;20548;-69
2023/04/15 08:16:51;;;;;;;48.50;27.03;;;;;;;;;;5095672;28;20460;-70
2023/04/15 08:19:20;;;;;;;55.90;27.50;;;;;;;;;;5094815;28;20482;-71
2023/04/15 08:21:54;;;;;;;50.60;26.70;;;;;;;;;;5092892;28;20508;-70
2023/04/15 08:24:25;;;;;;;41.80;24.30;;;;;;;;;;5094235;28;20470;-70
2023/04/15 08:26:57;;;;;;;44.30;23.80;;;;;;;;;;5094473;28;20452;-71
2023/04/15 08:29:24;;;;;;;44.50;24.37;;;;;;;;;;5094439;28;20813;-70
2023/04/15 08:31:54;;;;;;;45.73;24.43;;;;;;;;;;5094718;28;20452;-71
2023/04/15 08:34:22;;;;;;;44.30;25.40;;;;;;;;;;5093292;28;20855;-70
2023/04/15 08:36:59;;;;;;;51.80;26.50;;;;;;;;;;5094843;28;20448;-71
2023/04/15 08:39:29;;;;;;;46.10;26.57;;;;;;;;;;5094736;28;20483;-70
2023/04/15 08:42:06;;;;;;;46.93;24.77;;;;;;;;;;5093911;28;20514;-70
2023/04/15 08:44:43;;;;;;;48.03;25.77;;;;;;;;;;5084993;28;20782;-70
2023/04/15 08:47:26;;;;;;;47.37;26.20;;;;;;;;;;5096881;28;20493;-70
2023/04/15 08:49:57;;;;;;;44.60;27.13;;;;;;;;;;5091797;28;20471;-70
2023/04/15 08:52:28;;;;;;;45.40;25.93;;;;;;;;;;5100421;28;20493;-69
2023/04/15 08:55:06;;;;;;;44.33;25.03;;;;;;;;;;5098300;28;20483;-70
2023/04/15 08:57:38;;;;;;;50.90;26.33;;;;;;;;;;5096961;28;20460;-70
2023/04/15 09:00:33;;;;;;;42.17;23.83;;;;;;;;;;5076893;28;20792;-70
2023/04/15 09:09:23;;;;;;;48.40;24.90;;;;;;;;;;5075400;28;20874;-70
2023/04/15 09:11:57;;;;;;;48.67;25.40;;;;;;;;;;5075875;28;20759;-70
2023/04/15 09:14:36;;;;;;;42.33;23.50;;;;;;;;;;5075793;28;20575;-70
2023/04/15 09:17:09;;;;;;;46.43;25.43;;;;;;;;;;5094914;28;20436;-72
2023/04/15 09:19:43;;;;;;;42.20;22.40;;;;;;;;;;5096486;28;20452;-70
2023/04/15 09:25:29;;;;;;;43.57;24.50;;;;;;;;;;5088124;28;20995;-71
2023/04/15 09:28:06;;;;;;;40.17;23.57;;;;;;;;;;5095653;28;20468;-70
2023/04/15 09:30:52;;;;;;;40.83;25.57;;;;;;;;;;5084318;28;20487;-69
2023/04/15 09:33:21;;;;;;;41.00;24.70;;;;;;;;;;5074179;28;20605;-71
2023/04/15 09:35:57;;;;;;;41.97;23.93;;;;;;;;;;5082456;28;20563;-71
2023/04/15 09:38:29;;;;;;;42.83;24.30;;;;;;;;;;5086744;28;20515;-70
2023/04/15 09:44:23;;;;;;;38.97;25.33;;;;;;;;;;5043033;28;20461;-70
2023/04/15 09:46:54;;;;;;;37.13;23.30;;;;;;;;;;5095192;28;20464;-70
2023/04/15 09:49:26;;;;;;;41.00;24.97;;;;;;;;;;5095617;28;20535;-71
2023/04/15 09:52:02;;;;;;;35.53;22.93;;;;;;;;;;5096587;28;20452;-71
2023/04/15 10:00:29;;;;;;;38.70;24.77;;;;;;;;;;5094767;28;20491;-70
2023/04/15 10:03:09;;;;;;;35.70;23.53;;;;;;;;;;5095938;28;20486;-72
2023/04/15 10:05:43;;;;;;;37.57;22.33;;;;;;;;;;5096938;28;20512;-70
2023/04/15 10:08:11;;;;;;;45.23;24.93;;;;;;;;;;5096427;28;20494;-70
2023/04/15 10:10:44;;;;;;;33.77;22.00;;;;;;;;;;5095811;28;20432;-71
2023/04/15 10:13:27;;;;;;;37.63;23.50;;;;;;;;;;5091637;28;20531;-72
2023/04/15 10:16:13;;;;;;;35.40;20.33;;;;;;;;;;5088024;28;20464;-73
2023/04/15 10:18:44;;;;;;;33.60;22.43;;;;;;;;;;5086300;28;20452;-71
2023/04/15 10:21:17;;;;;;;30.07;20.03;;;;;;;;;;5095516;28;20452;-71
2023/04/15 10:23:46;;;;;;;33.23;20.93;;;;;;;;;;5095442;28;20452;-71
2023/04/15 10:26:17;;;;;;;31.03;20.93;;;;;;;;;;5095692;28;20521;-73
2023/04/15 10:32:01;;;;;;;30.63;21.83;;;;;;;;;;5052483;28;20444;-71
2023/04/15 10:34:46;;;;;;;31.07;20.70;;;;;;;;;;5091626;28;20510;-71
2023/04/15 10:37:36;;;;;;;33.63;19.70;;;;;;;;;;5077824;28;20448;-70
2023/04/15 10:40:37;;;;;;;32.83;21.20;;;;;;;;;;5083131;28;20678;-71
2023/04/15 10:46:19;;;;;;;34.80;20.73;;;;;;;;;;5086869;28;21289;-72
2023/04/15 10:49:00;;;;;;;32.40;20.87;;;;;;;;;;5075137;28;20875;-72
2023/04/15 10:51:34;;;;;;;27.63;19.77;;;;;;;;;;5090845;28;20459;-70
2023/04/15 10:54:05;;;;;;;31.97;20.80;;;;;;;;;;5091602;28;20490;-72
2023/04/15 10:56:43;;;;;;;27.37;18.93;;;;;;;;;;5091901;28;20456;-70
2023/04/15 10:59:13;;;;;;;27.03;18.90;;;;;;;;;;5087562;28;20465;-70
2023/04/15 11:01:58;;;;;;;26.63;19.40;;;;;;;;;;5091583;28;20882;-70
2023/04/15 11:04:50;;;;;;;26.57;20.23;;;;;;;;;;5070456;28;20449;-71
2023/04/15 11:10:36;;;;;;;26.43;16.40;;;;;;;;;;4994811;27;4569021;-71
2023/04/15 11:16:09;;;;;;;24.63;15.20;;;;;;;;;;5124875;28;20880;-70
2023/04/15 11:18:46;;;;;;;23.53;15.50;;;;;;;;;;5110734;28;20435;-71
2023/04/15 11:24:29;;;;;;;21.67;16.80;;;;;;;;;;5121658;28;20504;-71
2023/04/15 11:27:01;;;;;;;27.80;19.73;;;;;;;;;;5127940;28;20454;-70
2023/04/15 11:29:36;;;;;;;24.83;16.87;;;;;;;;;;5129411;28;20529;-70
2023/04/15 11:32:10;;;;;;;28.47;16.57;;;;;;;;;;5110007;28;20489;-70
2023/04/15 11:34:48;;;;;;;;;;;;;;;;;;;;;
2023/04/15 11:37:18;;;;;;;24.63;15.53;;;;;;;;;;5108228;28;20443;-70
2023/04/15 11:39:46;;;;;;;24.33;16.30;;;;;;;;;;5108596;28;20886;-70
2023/04/15 11:42:21;;;;;;;20.40;16.87;;;;;;;;;;5108295;28;20481;-70
2023/04/15 11:44:50;;;;;;;21.60;15.70;;;;;;;;;;5110107;28;20449;-72
2023/04/15 11:47:31;;;;;;;22.83;15.70;;;;;;;;;;5107012;28;20510;-70
2023/04/15 11:50:42;;;;;;;26.97;18.53;;;;;;;;;;5126866;28;20496;-70
2023/04/15 11:53:58;;;;;;;24.83;16.23;;;;;;;;;;5128432;28;20457;-71
2023/04/15 11:56:35;;;;;;;22.33;16.93;;;;;;;;;;5126458;28;20524;-70
2023/04/15 11:59:04;;;;;;;20.80;16.70;;;;;;;;;;5128980;28;20515;-70
2023/04/15 12:01:41;;;;;;;23.27;16.40;;;;;;;;;;5129184;28;20450;-71
2023/04/15 12:04:16;;;;;;;24.53;16.80;;;;;;;;;;5129430;28;20457;-72
2023/04/15 12:10:04;;;;;;;21.90;15.83;;;;;;;;;;5119969;28;20493;-71
2023/04/15 12:13:01;;;;;;;22.80;17.33;;;;;;;;;;5113671;28;20869;-70
2023/04/15 12:15:49;;;;;;;20.30;16.60;;;;;;;;;;5118749;28;20553;-70
2023/04/15 12:21:40;;;;;;;21.93;15.97;;;;;;;;;;5090932;28;20843;-70
2023/04/15 12:24:18;;;;;;;20.60;16.50;;;;;;;;;;5102344;28;20472;-71
2023/04/15 12:27:00;;;;;;;19.30;15.43;;;;;;;;;;5093462;28;20448;-70
2023/04/15 12:47:42;;;;;;;13.80;11.80;;;;;;;;;;5035565;28;20871;-70
2023/04/15 12:50:20;;;;;;;17.27;14.10;;;;;;;;;;5031227;28;20498;-72
2023/04/15 12:52:51;;;;;;;16.83;13.20;;;;;;;;;;5034872;28;20540;-71
2023/04/15 13:07:27;;;;;;;17.20;14.03;;;;;;;;;;4993311;28;20776;-69
2023/04/15 13:10:20;;;;;;;18.60;13.63;;;;;;;;;;5047568;28;20854;-71
2023/04/15 13:13:01;;;;;;;14.73;11.93;;;;;;;;;;5052566;28;20454;-71
2023/04/15 13:15:32;;;;;;;15.50;13.13;;;;;;;;;;5049431;28;20457;-71
2023/04/15 13:18:12;;;;;;;17.30;13.37;;;;;;;;;;5041588;28;20502;-70
2023/04/15 13:20:54;;;;;;;17.53;11.97;;;;;;;;;;5042619;28;20498;-70
2023/04/15 13:26:39;;;;;;;15.73;12.50;;;;;;;;;;5040685;28;20458;-70
2023/04/15 13:29:12;;;;;;;14.83;11.90;;;;;;;;;;5043011;28;20489;-70
2023/04/15 13:31:45;;;;;;;13.13;11.60;;;;;;;;;;5045698;28;20469;-70
2023/04/15 13:34:33;;;;;;;14.93;11.17;;;;;;;;;;5049384;28;20442;-70
2023/04/15 13:37:16;;;;;;;;;;;;;;;;;;;;;
2023/04/15 13:39:53;;;;;;;16.40;11.37;;;;;;;;;;5047626;28;20458;-70
2023/04/15 13:42:53;;;;;;;14.97;11.80;;;;;;;;;;5045675;28;20552;-70
2023/04/15 13:45:20;;;;;;;11.80;10.60;;;;;;;;;;5028981;28;20447;-71
2023/04/15 13:48:24;;;;;;;17.13;12.40;;;;;;;;;;5044854;28;20486;-70
2023/04/15 13:51:11;;;;;;;14.03;11.70;;;;;;;;;;5053223;28;20540;-70
2023/04/15 13:54:04;;;;;;;15.27;12.30;;;;;;;;;;5047490;28;20952;-70
2023/04/15 13:59:11;;;;;;;15.13;11.43;;;;;;;;;;5045138;28;20477;-70
2023/04/15 14:01:51;;;;;;;15.40;12.17;;;;;;;;;;5045930;28;20544;-70
2023/04/15 14:04:21;;;;;;;14.03;11.60;;;;;;;;;;5046709;28;20449;-70
2023/04/15 14:09:49;;;;;;;23.87;16.70;;;;;;;;;;5025610;28;20581;-70
2023/04/15 14:12:32;;;;;;;44.80;30.70;;;;;;;;;;5036048;28;20501;-71
2023/04/15 14:15:06;;;;;;;15.30;11.27;;;;;;;;;;5048644;28;20474;-72
2023/04/15 14:17:42;;;;;;;12.47;11.27;;;;;;;;;;5050399;28;20441;-70
2023/04/15 14:20:14;;;;;;;12.47;11.17;;;;;;;;;;5056275;28;20931;-70
2023/04/15 14:22:43;;;;;;;13.30;10.63;;;;;;;;;;5055636;28;20472;-70
2023/04/15 14:25:18;;;;;;;13.97;9.70;;;;;;;;;;5030265;28;20790;-70
2023/04/15 14:27:52;;;;;;;10.70;9.60;;;;;;;;;;5030664;28;20482;-70
2023/04/15 14:30:28;;;;;;;10.70;9.13;;;;;;;;;;5049403;28;20847;-71
2023/04/15 14:33:13;;;;;;;10.27;9.03;;;;;;;;;;5050444;28;20456;-70
2023/04/15 14:35:49;;;;;;;11.43;10.13;;;;;;;;;;5051306;28;20473;-71
2023/04/15 14:38:28;;;;;;;12.03;9.70;;;;;;;;;;5050098;28;20502;-70
2023/04/15 14:41:06;;;;;;;12.77;9.30;;;;;;;;;;5050534;28;20519;-70
2023/04/15 14:43:47;;;;;;;12.37;9.20;;;;;;;;;;5050058;28;20535;-70
2023/04/15 14:46:20;;;;;;;18.90;11.53;;;;;;;;;;5050087;28;20906;-70
2023/04/15 14:49:00;;;;;;;11.30;9.60;;;;;;;;;;5031446;28;20446;-71
2023/04/15 14:51:30;;;;;;;11.57;9.80;;;;;;;;;;5029923;28;21112;-69
2023/04/15 14:53:59;;;;;;;14.90;10.20;;;;;;;;;;5030283;28;20526;-71
2023/04/15 14:56:37;;;;;;;16.77;12.17;;;;;;;;;;5044770;28;20450;-71
2023/04/15 14:59:26;;;;;;;11.97;9.63;;;;;;;;;;5028811;28;21208;-69
2023/04/15 15:02:27;;;;;;;12.50;9.60;;;;;;;;;;5038236;28;20557;-72
2023/04/15 15:08:10;;;;;;;12.80;9.90;;;;;;;;;;5019091;28;20545;-70
2023/04/15 15:10:38;;;;;;;9.53;8.37;;;;;;;;;;5015232;28;20491;-70
2023/04/15 15:13:13;;;;;;;11.40;9.70;;;;;;;;;;5012056;28;20448;-70
2023/04/15 15:15:48;;;;;;;12.33;10.30;;;;;;;;;;5020682;28;20866;-71
2023/04/15 15:18:19;;;;;;;13.30;10.60;;;;;;;;;;5033029;28;20438;-70
2023/04/15 15:20:50;;;;;;;13.60;10.10;;;;;;;;;;5031467;28;20458;-70
2023/04/15 15:23:30;;;;;;;13.03;9.90;;;;;;;;;;5030631;28;20466;-70
2023/04/15 15:26:05;;;;;;;11.73;9.60;;;;;;;;;;5011999;28;20469;-71
2023/04/15 15:28:33;;;;;;;11.33;9.13;;;;;;;;;;5032594;28;20564;-70
2023/04/15 15:31:01;;;;;;;14.70;9.23;;;;;;;;;;5031936;28;20906;-70
2023/04/15 15:33:46;;;;;;;10.57;9.47;;;;;;;;;;5030968;28;20470;-70
2023/04/15 15:36:23;;;;;;;12.53;10.97;;;;;;;;;;5028828;28;20455;-70
2023/04/15 15:38:58;;;;;;;16.13;11.07;;;;;;;;;;5027135;28;20845;-70
2023/04/15 15:41:33;;;;;;;11.97;10.40;;;;;;;;;;5018503;28;20600;-71
2023/04/15 15:44:06;;;;;;;15.77;10.40;;;;;;;;;;5028576;28;20490;-71
2023/04/15 15:46:34;;;;;;;15.87;12.00;;;;;;;;;;5027108;28;20489;-71
2023/04/15 15:49:05;;;;;;;17.60;10.97;;;;;;;;;;5026288;28;20459;-69
2023/04/15 15:51:40;;;;;;;16.40;11.23;;;;;;;;;;5031732;28;20482;-70
2023/04/15 15:54:08;;;;;;;16.90;11.27;;;;;;;;;;5026405;28;20594;-71
2023/04/15 15:56:38;;;;;;;14.10;11.93;;;;;;;;;;5033591;28;20443;-71
2023/04/15 15:59:12;;;;;;;14.13;11.43;;;;;;;;;;5035175;28;20494;-71
2023/04/15 16:01:40;;;;;;;16.57;13.57;;;;;;;;;;5053106;28;20457;-70
2023/04/15 16:04:12;;;;;;;19.07;11.70;;;;;;;;;;5039870;28;20449;-69
2023/04/15 16:06:43;;;;;;;14.77;12.87;;;;;;;;;;5053187;28;20449;-70
2023/04/15 16:09:12;;;;;;;17.23;10.57;;;;;;;;;;5038735;28;20454;-69
2023/04/15 16:11:42;;;;;;;15.57;12.07;;;;;;;;;;5041614;28;20450;-71
2023/04/15 16:14:09;;;;;;;14.73;10.90;;;;;;;;;;5052992;28;20523;-71
2023/04/15 16:16:37;;;;;;;14.43;11.40;;;;;;;;;;5047012;28;20468;-71
2023/04/15 16:19:05;;;;;;;13.80;11.43;;;;;;;;;;5048120;28;20457;-71
2023/04/15 16:21:50;;;;;;;17.00;12.30;;;;;;;;;;5040782;28;20762;-72
2023/04/15 16:24:21;;;;;;;13.10;11.33;;;;;;;;;;5036597;28;20592;-71